Time;durP1;ratioP1;P1;durP2;ratioP2;P2;SDS_P1;SDS_P2;PMS_P1;PMS_P2;Temp;Humidity;BMP_temperature;BMP_pressure;BME280_temperature;BME280_humidity;BME280_pressure;Samples;Min_cycle;Max_cycle;Signal;HPM_P1;HPM_P2
2023/10/25 05:16:22;;;;;;;;;;;;;;;;;;1467454;26;20386;-39
2023/10/25 05:18:48;;;;;;;;;;;;;;;;;;5020521;28;19917;-40
2023/10/25 05:21:14;;;;;;;;;;;;;;;;;;5010833;28;19917;-40
2023/10/25 05:23:40;;;;;;;;;;;;;;;;;;5011321;28;19920;-39
2023/10/25 05:26:06;;;;;;;;;;;;;;;;;;5011183;28;19910;-39
2023/10/25 05:28:32;;;;;;;;;;;;;;;;;;5011326;28;19971;-39
2023/10/25 05:30:58;;;;;;;;;;;;;;;;;;5011225;28;19910;-39
2023/10/25 05:33:24;;;;;;;;;;;;;;;;;;5011270;28;19913;-39
2023/10/25 05:35:50;;;;;;;;;;;;;;;;;;5011395;28;20373;-39
2023/10/25 05:38:16;;;;;;;;;;;;;;;;;;5010819;28;19909;-41
2023/10/25 05:40:42;;;;;;;;;;;;;;;;;;5011180;28;19989;-39
2023/10/25 05:43:07;;;;;;;;;;;;;;;;;;5011155;28;19909;-39
2023/10/25 05:45:33;;;;;;;;;;;;;;;;;;5010896;28;20289;-40
2023/10/25 05:47:59;;;;;;;;;;;;;;;;;;5010936;28;19914;-40
2023/10/25 05:50:25;;;;;;;;;;;;;;;;;;5010649;28;19963;-39
2023/10/25 05:52:51;;;;;;;;;;;;;;;;;;5011017;28;19920;-39
2023/10/25 05:55:17;;;;;;;;;;;;;;;;;;5011072;28;20474;-39
2023/10/25 05:57:43;;;;;;;;;;;;;;;;;;5013261;28;19964;-39
2023/10/25 06:00:09;;;;;;;;;;;;;;;;;;5012007;28;19921;-40
2023/10/25 06:02:35;;;;;;;;;;;;;;;;;;5008753;28;19920;-40
2023/10/25 06:05:01;;;;;;;;;;;;;;;;;;5009999;28;19916;-39
2023/10/25 06:07:27;;;;;;;;;;;;;;;;;;5009341;28;19979;-40
2023/10/25 06:09:53;;;;;;;;;;;;;;;;;;5009325;28;19921;-40
2023/10/25 06:12:22;;;;;;;;;;;;;;;;;;5009863;28;19917;-40
2023/10/25 06:14:48;;;;;;;;;;;;;;;;;;4987969;28;19910;-39
2023/10/25 06:17:14;;;;;;;;;;;;;;;;;;5001356;28;19921;-39
2023/10/25 06:19:40;;;;;;;;;;;;;;;;;;5009308;28;19918;-40
2023/10/25 06:22:06;;;;;;;;;;;;;;;;;;5009678;28;20529;-40
2023/10/25 06:24:31;;;;;;;;;;;;;;;;;;5008968;28;19913;-40
2023/10/25 06:26:57;;;;;;;;;;;;;;;;;;5009275;28;20018;-39
2023/10/25 06:29:24;;;;;;;;;;;;;;;;;;5010444;28;20298;-39
2023/10/25 06:31:53;;;;;;;;;;;;;;;;;;5021771;28;19913;-40
2023/10/25 06:34:19;;;;;;;;;;;;;;;;;;5014133;28;19918;-39
2023/10/25 06:36:45;;;;;;;;;;;;;;;;;;5014403;28;19920;-39
2023/10/25 06:39:11;;;;;;;;;;;;;;;;;;5014114;28;19913;-40
2023/10/25 06:41:36;;;;;;;;;;;;;;;;;;5016434;28;19914;-40
2023/10/25 06:44:02;;;;;;;;;;;;;;;;;;5024512;28;19913;-39
2023/10/25 06:46:28;;;;;;;;;;;;;;;;;;5013704;28;19913;-40
2023/10/25 06:48:56;;;;;;;;;;;;;;;;;;5013464;28;19960;-39
2023/10/25 06:51:22;;;;;;;;;;;;;;;;;;5020848;28;20255;-39
2023/10/25 06:53:48;;;;;;;;;;;;;;;;;;5017617;28;20016;-39
2023/10/25 06:56:13;;;;;;;;;;;;;;;;;;5014259;28;19910;-39
2023/10/25 06:58:40;;;;;;;;;;;;;;;;;;5014138;28;19913;-39
2023/10/25 07:01:06;;;;;;;;;;;;;;;;;;5014251;28;19945;-39
2023/10/25 07:03:32;;;;;;;;;;;;;;;;;;5014328;28;19941;-39
2023/10/25 07:05:58;;;;;;;;;;;;;;;;;;5013864;28;19997;-39
2023/10/25 07:08:24;;;;;;;;;;;;;;;;;;5014194;28;20008;-40
2023/10/25 07:10:50;;;;;;;;;;;;;;;;;;5014090;28;19913;-39
2023/10/25 07:13:16;;;;;;;;;;;;;;;;;;5013787;28;19918;-39
2023/10/25 07:15:41;;;;;;;;;;;;;;;;;;5013838;28;20389;-39
2023/10/25 07:18:07;;;;;;;;;;;;;;;;;;5013647;28;19917;-39
2023/10/25 07:20:33;;;;;;;;;;;;;;;;;;5013626;28;19910;-39
2023/10/25 07:23:00;;;;;;;;;;;;;;;;;;5013672;28;19913;-39
2023/10/25 07:25:26;;;;;;;;;;;;;;;;;;5013466;28;19952;-39
2023/10/25 07:27:52;;;;;;;;;;;;;;;;;;5008265;28;19957;-39
2023/10/25 07:30:18;;;;;;;;;;;;;;;;;;5013991;28;19916;-39
2023/10/25 07:32:44;;;;;;;;;;;;;;;;;;5021225;28;19941;-39
2023/10/25 07:35:10;;;;;;;;;;;;;;;;;;5012138;28;19919;-40
2023/10/25 07:37:35;;;;;;;;;;;;;;;;;;4993953;28;20298;-39
2023/10/25 07:40:02;;;;;;;;;;;;;;;;;;4997432;28;19992;-39
2023/10/25 07:42:27;;;;;;;;;;;;;;;;;;5015762;28;19914;-39
2023/10/25 07:44:53;;;;;;;;;;;;;;;;;;5013451;28;19935;-39
2023/10/25 07:47:20;;;;;;;;;;;;;;;;;;5012995;28;19914;-40
2023/10/25 07:49:46;;;;;;;;;;;;;;;;;;5013399;28;19910;-39
2023/10/25 07:52:12;;;;;;;;;;;;;;;;;;5013228;28;19977;-40
2023/10/25 07:54:38;;;;;;;;;;;;;;;;;;5013114;28;20385;-39
2023/10/25 07:57:04;;;;;;;;;;;;;;;;;;5012913;28;19909;-39
2023/10/25 07:59:30;;;;;;;;;;;;;;;;;;5013015;28;19957;-40
2023/10/25 08:01:56;;;;;;;;;;;;;;;;;;5013257;28;19971;-40
2023/10/25 08:04:22;;;;;;;;;;;;;;;;;;5008576;28;19924;-40
2023/10/25 08:06:47;;;;;;;;;;;;;;;;;;5011823;28;19917;-40
2023/10/25 08:09:13;;;;;;;;;;;;;;;;;;5012847;28;20448;-40
2023/10/25 08:11:39;;;;;;;;;;;;;;;;;;5012931;28;19919;-40
2023/10/25 08:14:05;;;;;;;;;;;;;;;;;;5012855;28;19913;-40
2023/10/25 08:16:32;;;;;;;;;;;;;;;;;;5012462;28;19914;-40
2023/10/25 08:18:58;;;;;;;;;;;;;;;;;;5012915;28;19913;-40
2023/10/25 08:21:23;;;;;;;;;;;;;;;;;;5012576;28;19909;-40
2023/10/25 08:23:51;;;;;;;;;;;;;;;;;;5012701;28;20393;-40
2023/10/25 08:26:17;;;;;;;;;;;;;;;;;;5010467;28;20290;-40
2023/10/25 08:28:43;;;;;;;;;;;;;;;;;;5007494;28;19913;-40
2023/10/25 08:31:09;;;;;;;;;;;;;;;;;;5013108;28;19909;-40
2023/10/25 08:33:35;;;;;;;;;;;;;;;;;;5012630;28;19917;-40
2023/10/25 08:36:01;;;;;;;;;;;;;;;;;;5006225;28;20412;-40
2023/10/25 08:38:27;;;;;;;;;;;;;;;;;;5012458;28;19916;-40
2023/10/25 08:40:53;;;;;;;;;;;;;;;;;;5013018;28;19913;-40
2023/10/25 08:43:19;;;;;;;;;;;;;;;;;;5012615;28;20366;-40
2023/10/25 08:45:45;;;;;;;;;;;;;;;;;;5012450;28;19937;-40
2023/10/25 08:48:10;;;;;;;;;;;;;;;;;;5001585;28;19914;-40
2023/10/25 08:50:36;;;;;;;;;;;;;;;;;;4999593;28;19956;-40
2023/10/25 08:53:02;;;;;;;;;;;;;;;;;;5006578;28;19955;-40
2023/10/25 08:55:28;;;;;;;;;;;;;;;;;;5009337;28;20282;-41
2023/10/25 08:57:55;;;;;;;;;;;;;;;;;;5013025;28;19955;-41
2023/10/25 09:00:22;;;;;;;;;;;;;;;;;;5012584;28;20366;-40
2023/10/25 09:02:49;;;;;;;;;;;;;;;;;;5012844;28;19913;-40
2023/10/25 09:05:15;;;;;;;;;;;;;;;;;;5012742;28;19910;-40
2023/10/25 09:07:41;;;;;;;;;;;;;;;;;;5012584;28;20004;-40
2023/10/25 09:10:06;;;;;;;;;;;;;;;;;;5010887;28;19967;-40
2023/10/25 09:12:32;;;;;;;;;;;;;;;;;;5012681;28;20385;-40
2023/10/25 09:14:58;;;;;;;;;;;;;;;;;;5011273;28;19910;-41
2023/10/25 09:17:24;;;;;;;;;;;;;;;;;;5004281;28;19917;-40
2023/10/25 09:19:50;;;;;;;;;;;;;;;;;;5010899;28;19913;-40
2023/10/25 09:22:16;;;;;;;;;;;;;;;;;;5002006;28;19913;-40
2023/10/25 09:24:42;;;;;;;;;;;;;;;;;;5025589;28;19913;-40
2023/10/25 09:27:08;;;;;;;;;;;;;;;;;;5026771;28;20019;-41
2023/10/25 09:29:35;;;;;;;;;;;;;;;;;;5009265;28;19921;-40
2023/10/25 09:32:01;;;;;;;;;;;;;;;;;;5015863;28;19917;-40
2023/10/25 09:34:27;;;;;;;;;;;;;;;;;;5010116;28;19924;-41
2023/10/25 09:36:53;;;;;;;;;;;;;;;;;;5010069;28;19959;-40
2023/10/25 09:39:19;;;;;;;;;;;;;;;;;;5010348;28;19932;-40
2023/10/25 09:41:50;;;;;;;;;;;;;;;;;;5010348;28;19917;-40
2023/10/25 09:44:16;;;;;;;;;;;;;;;;;;5006942;28;20360;-40
2023/10/25 09:46:42;;;;;;;;;;;;;;;;;;5009855;28;20255;-40
2023/10/25 09:49:09;;;;;;;;;;;;;;;;;;5010924;28;20350;-40
2023/10/25 09:51:34;;;;;;;;;;;;;;;;;;5009847;28;19909;-40
2023/10/25 09:54:00;;;;;;;;;;;;;;;;;;5010063;28;19917;-40
2023/10/25 09:56:26;;;;;;;;;;;;;;;;;;5010085;28;19941;-40
2023/10/25 09:58:52;;;;;;;;;;;;;;;;;;5010041;28;19913;-40
2023/10/25 10:01:18;;;;;;;;;;;;;;;;;;5027148;28;19917;-41
2023/10/25 10:03:44;;;;;;;;;;;;;;;;;;5029776;28;19945;-40
2023/10/25 10:06:10;;;;;;;;;;;;;;;;;;5030151;28;19909;-40
2023/10/25 10:08:36;;;;;;;;;;;;;;;;;;5028718;28;19971;-41
2023/10/25 10:11:02;;;;;;;;;;;;;;;;;;5029507;28;19917;-41
2023/10/25 10:13:28;;;;;;;;;;;;;;;;;;5028619;28;20322;-41
2023/10/25 10:15:54;;;;;;;;;;;;;;;;;;5029466;28;19952;-41
2023/10/25 10:18:20;;;;;;;;;;;;;;;;;;5029407;28;19921;-41
2023/10/25 10:20:45;;;;;;;;;;;;;;;;;;5025256;28;19913;-41
2023/10/25 10:23:16;;;;;;;;;;;;;;;;;;5030257;28;19909;-41
2023/10/25 10:25:42;;;;;;;;;;;;;;;;;;5030032;28;19909;-41
2023/10/25 10:28:08;;;;;;;;;;;;;;;;;;5025199;28;20051;-41
2023/10/25 10:30:34;;;;;;;;;;;;;;;;;;5008629;28;19916;-41
2023/10/25 10:33:00;;;;;;;;;;;;;;;;;;5009739;28;19953;-42
2023/10/25 10:35:28;;;;;;;;;;;;;;;;;;5002877;28;19942;-41
2023/10/25 10:37:54;;;;;;;;;;;;;;;;;;5008227;28;19909;-42
2023/10/25 10:40:19;;;;;;;;;;;;;;;;;;5009284;28;20309;-41
2023/10/25 10:42:45;;;;;;;;;;;;;;;;;;5011978;28;19913;-41
2023/10/25 10:45:11;;;;;;;;;;;;;;;;;;5016747;28;19909;-41
2023/10/25 10:47:37;;;;;;;;;;;;;;;;;;5019881;28;19913;-41
2023/10/25 10:50:03;;;;;;;;;;;;;;;;;;5012650;28;19996;-41
2023/10/25 10:52:29;;;;;;;;;;;;;;;;;;5006214;28;19918;-41
2023/10/25 10:54:55;;;;;;;;;;;;;;;;;;5006104;28;19914;-42
2023/10/25 10:57:21;;;;;;;;;;;;;;;;;;5007927;28;19914;-43
2023/10/25 10:59:47;;;;;;;;;;;;;;;;;;5008001;28;20376;-41
2023/10/25 11:02:13;;;;;;;;;;;;;;;;;;5008624;28;19914;-42
2023/10/25 11:04:38;;;;;;;;;;;;;;;;;;5007051;28;19913;-40
2023/10/25 11:07:05;;;;;;;;;;;;;;;;;;5007042;28;20012;-40
2023/10/25 11:09:31;;;;;;;;;;;;;;;;;;5008526;28;20270;-39
2023/10/25 11:11:56;;;;;;;;;;;;;;;;;;5008453;28;19909;-40
2023/10/25 11:14:22;;;;;;;;;;;;;;;;;;5014225;28;20034;-40
2023/10/25 11:16:48;;;;;;;;;;;;;;;;;;5006870;28;19914;-41
2023/10/25 11:19:14;;;;;;;;;;;;;;;;;;5010719;28;19913;-40
2023/10/25 11:21:40;;;;;;;;;;;;;;;;;;5013393;28;19913;-39
2023/10/25 11:24:09;;;;;;;;;;;;;;;;;;5011813;28;19941;-40
2023/10/25 11:26:40;;;;;;;;;;;;;;;;;;5011297;28;19996;-40
2023/10/25 11:29:06;;;;;;;;;;;;;;;;;;5012302;28;19916;-40
2023/10/25 11:31:32;;;;;;;;;;;;;;;;;;5011249;28;19917;-40
2023/10/25 11:33:58;;;;;;;;;;;;;;;;;;5011092;28;19918;-40
2023/10/25 11:36:24;;;;;;;;;;;;;;;;;;5010952;28;19921;-40
2023/10/25 11:38:50;;;;;;;;;;;;;;;;;;5014017;28;20008;-40
2023/10/25 11:41:16;;;;;;;;;;;;;;;;;;5011580;28;19987;-41
2023/10/25 11:43:42;;;;;;;;;;;;;;;;;;5010497;28;19913;-41
2023/10/25 11:46:08;;;;;;;;;;;;;;;;;;5011017;28;19925;-41
2023/10/25 11:48:35;;;;;;;;;;;;;;;;;;5011583;28;19909;-40
2023/10/25 11:51:00;;;;;;;;;;;;;;;;;;5010332;28;20394;-41
2023/10/25 11:53:26;;;;;;;;;;;;;;;;;;5019491;28;19963;-41
2023/10/25 11:55:57;;;;;;;;;;;;;;;;;;5009037;28;20001;-42
2023/10/25 11:58:22;;;;;;;;;;;;;;;;;;5014464;28;19920;-42
2023/10/25 12:00:48;;;;;;;;;;;;;;;;;;5024041;28;19913;-41
2023/10/25 12:03:14;;;;;;;;;;;;;;;;;;5009785;28;19917;-41
2023/10/25 12:05:41;;;;;;;;;;;;;;;;;;4990582;28;20068;-41
2023/10/25 12:08:07;;;;;;;;;;;;;;;;;;5009129;28;20456;-40
2023/10/25 12:10:33;;;;;;;;;;;;;;;;;;5010029;28;19913;-40
2023/10/25 12:12:59;;;;;;;;;;;;;;;;;;5023155;28;20008;-41
2023/10/25 12:15:25;;;;;;;;;;;;;;;;;;5012534;28;19984;-40
2023/10/25 12:17:50;;;;;;;;;;;;;;;;;;4995873;28;19917;-41
2023/10/25 12:20:16;;;;;;;;;;;;;;;;;;5030322;28;20004;-42
2023/10/25 12:22:42;;;;;;;;;;;;;;;;;;5004015;28;20506;-42
2023/10/25 12:25:08;;;;;;;;;;;;;;;;;;4990940;28;20341;-42
2023/10/25 12:27:34;;;;;;;;;;;;;;;;;;4990497;28;20008;-42
2023/10/25 12:30:00;;;;;;;;;;;;;;;;;;5016902;28;20294;-43
2023/10/25 12:32:26;;;;;;;;;;;;;;;;;;5029831;28;19909;-43
2023/10/25 12:34:52;;;;;;;;;;;;;;;;;;5018826;28;20282;-43
2023/10/25 12:37:18;;;;;;;;;;;;;;;;;;5023294;28;19940;-42
2023/10/25 12:39:43;;;;;;;;;;;;;;;;;;5028812;28;19944;-42
2023/10/25 12:42:09;;;;;;;;;;;;;;;;;;5010554;28;19913;-42
2023/10/25 12:44:35;;;;;;;;;;;;;;;;;;5009463;28;19910;-42
2023/10/25 12:47:03;;;;;;;;;;;;;;;;;;5009964;28;19916;-43
2023/10/25 12:49:29;;;;;;;;;;;;;;;;;;5009869;28;19952;-43
2023/10/25 12:51:55;;;;;;;;;;;;;;;;;;5011787;28;19948;-43
2023/10/25 12:54:21;;;;;;;;;;;;;;;;;;5020650;28;21766;-42
2023/10/25 12:56:48;;;;;;;;;;;;;;;;;;4995010;28;19924;-43
2023/10/25 12:59:14;;;;;;;;;;;;;;;;;;5009651;28;19909;-43
2023/10/25 13:01:39;;;;;;;;;;;;;;;;;;5006738;28;20466;-43
2023/10/25 13:04:05;;;;;;;;;;;;;;;;;;5008456;28;19928;-42
2023/10/25 13:06:33;;;;;;;;;;;;;;;;;;5006080;28;19914;-43
2023/10/25 13:08:58;;;;;;;;;;;;;;;;;;5006504;28;19979;-43
2023/10/25 13:11:24;;;;;;;;;;;;;;;;;;5008772;28;20324;-43
2023/10/25 13:13:50;;;;;;;;;;;;;;;;;;5006528;28;19944;-43
2023/10/25 13:16:16;;;;;;;;;;;;;;;;;;5020851;28;19913;-44
2023/10/25 13:18:42;;;;;;;;;;;;;;;;;;5016253;28;19917;-43
2023/10/25 13:21:08;;;;;;;;;;;;;;;;;;5019530;28;19917;-43
2023/10/25 13:23:34;;;;;;;;;;;;;;;;;;4995264;28;20060;-43
2023/10/25 13:26:00;;;;;;;;;;;;;;;;;;4990849;28;20512;-44
2023/10/25 13:28:26;;;;;;;;;;;;;;;;;;5009080;28;19915;-43
2023/10/25 13:30:52;;;;;;;;;;;;;;;;;;4990915;28;19931;-43
2023/10/25 13:33:18;;;;;;;;;;;;;;;;;;5005398;28;19918;-44
2023/10/25 13:35:43;;;;;;;;;;;;;;;;;;5007879;28;19910;-43
2023/10/25 13:38:09;;;;;;;;;;;;;;;;;;4990968;28;19986;-43
2023/10/25 13:40:35;;;;;;;;;;;;;;;;;;5007630;28;20020;-42
2023/10/25 13:43:01;;;;;;;;;;;;;;;;;;4990909;28;19956;-44
2023/10/25 13:45:27;;;;;;;;;;;;;;;;;;4999360;28;19909;-44
2023/10/25 13:47:53;;;;;;;;;;;;;;;;;;5028867;28;20004;-42
2023/10/25 13:50:21;;;;;;;;;;;;;;;;;;5021810;28;19913;-44
2023/10/25 13:52:47;;;;;;;;;;;;;;;;;;5008675;28;19921;-44
2023/10/25 13:55:13;;;;;;;;;;;;;;;;;;5008697;28;20428;-43
2023/10/25 13:57:39;;;;;;;;;;;;;;;;;;5006524;28;19909;-43
2023/10/25 14:00:10;;;;;;;;;;;;;;;;;;5008331;28;20286;-43
2023/10/25 14:02:36;;;;;;;;;;;;;;;;;;5008077;28;19909;-43
2023/10/25 14:05:02;;;;;;;;;;;;;;;;;;4994369;28;19962;-43
2023/10/25 14:07:28;;;;;;;;;;;;;;;;;;5011760;28;19913;-43
2023/10/25 14:09:54;;;;;;;;;;;;;;;;;;5008429;28;20324;-46
2023/10/25 14:12:20;;;;;;;;;;;;;;;;;;5006955;28;19926;-46
2023/10/25 14:14:46;;;;;;;;;;;;;;;;;;5008040;28;20592;-44
2023/10/25 14:17:12;;;;;;;;;;;;;;;;;;5007894;28;19921;-44
2023/10/25 14:19:38;;;;;;;;;;;;;;;;;;5007154;28;19914;-45
2023/10/25 14:22:04;;;;;;;;;;;;;;;;;;5010159;28;19920;-45
2023/10/25 14:24:29;;;;;;;;;;;;;;;;;;5027759;28;19967;-44
2023/10/25 14:26:55;;;;;;;;;;;;;;;;;;5028366;28;19915;-44
2023/10/25 14:29:22;;;;;;;;;;;;;;;;;;5025044;28;19924;-44
2023/10/25 14:31:47;;;;;;;;;;;;;;;;;;5009671;28;19913;-44
2023/10/25 14:34:13;;;;;;;;;;;;;;;;;;5007465;28;19913;-44
2023/10/25 14:36:40;;;;;;;;;;;;;;;;;;5006370;28;20032;-42
2023/10/25 14:39:05;;;;;;;;;;;;;;;;;;4995499;28;19913;-45
2023/10/25 14:41:32;;;;;;;;;;;;;;;;;;5006420;28;19941;-43
2023/10/25 14:43:59;;;;;;;;;;;;;;;;;;5006190;28;20036;-47
2023/10/25 14:46:27;;;;;;;;;;;;;;;;;;5007257;28;19909;-43
2023/10/25 14:48:55;;;;;;;;;;;;;;;;;;5005602;28;19913;-44
2023/10/25 14:51:26;;;;;;;;;;;;;;;;;;5005990;28;20555;-46
2023/10/25 14:53:52;;;;;;;;;;;;;;;;;;5027465;28;19971;-43
2023/10/25 14:56:17;;;;;;;;;;;;;;;;;;5029877;28;20385;-44
2023/10/25 14:58:43;;;;;;;;;;;;;;;;;;5030306;28;20226;-44
2023/10/25 15:01:09;;;;;;;;;;;;;;;;;;5027689;28;19947;-47
2023/10/25 15:03:35;;;;;;;;;;;;;;;;;;5029669;28;20370;-44
2023/10/25 15:06:01;;;;;;;;;;;;;;;;;;5028758;28;20215;-44
2023/10/25 15:08:27;;;;;;;;;;;;;;;;;;4992260;28;19940;-44
2023/10/25 15:10:53;;;;;;;;;;;;;;;;;;4992505;28;19957;-44
2023/10/25 15:13:19;;;;;;;;;;;;;;;;;;5021944;28;19921;-44
2023/10/25 15:15:45;;;;;;;;;;;;;;;;;;5012597;28;19913;-44
2023/10/25 15:18:11;;;;;;;;;;;;;;;;;;5013879;28;19924;-44
2023/10/25 15:20:37;;;;;;;;;;;;;;;;;;5009680;28;20321;-46
2023/10/25 15:23:03;;;;;;;;;;;;;;;;;;5010329;28;19913;-44
2023/10/25 15:25:29;;;;;;;;;;;;;;;;;;5009603;28;19920;-44
2023/10/25 15:27:55;;;;;;;;;;;;;;;;;;5010313;28;19976;-44
2023/10/25 15:30:21;;;;;;;;;;;;;;;;;;5009438;28;19909;-45
2023/10/25 15:32:47;;;;;;;;;;;;;;;;;;5009541;28;19910;-45
2023/10/25 15:35:12;;;;;;;;;;;;;;;;;;5009760;28;20352;-44
2023/10/25 15:37:38;;;;;;;;;;;;;;;;;;5009449;28;19941;-45
2023/10/25 15:40:04;;;;;;;;;;;;;;;;;;4991740;28;20291;-44
2023/10/25 15:42:30;;;;;;;;;;;;;;;;;;5009435;28;19909;-44
2023/10/25 15:44:56;;;;;;;;;;;;;;;;;;5009821;28;19944;-43
2023/10/25 15:47:22;;;;;;;;;;;;;;;;;;4991731;28;19909;-44
2023/10/25 15:49:48;;;;;;;;;;;;;;;;;;5022894;28;19963;-45
2023/10/25 15:52:14;;;;;;;;;;;;;;;;;;5029016;28;20362;-44
2023/10/25 15:54:39;;;;;;;;;;;;;;;;;;5027961;28;19917;-44
2023/10/25 15:57:05;;;;;;;;;;;;;;;;;;5028934;28;20237;-44
2023/10/25 15:59:31;;;;;;;;;;;;;;;;;;5028706;28;19963;-46
2023/10/25 16:01:57;;;;;;;;;;;;;;;;;;5029941;28;19963;-43
2023/10/25 16:04:23;;;;;;;;;;;;;;;;;;5027844;28;19932;-44
2023/10/25 16:06:49;;;;;;;;;;;;;;;;;;5026193;28;20508;-45
2023/10/25 16:09:15;;;;;;;;;;;;;;;;;;5028367;28;20401;-46
2023/10/25 16:11:41;;;;;;;;;;;;;;;;;;5028733;28;20399;-43
2023/10/25 16:14:06;;;;;;;;;;;;;;;;;;5010917;28;19964;-43
2023/10/25 16:16:32;;;;;;;;;;;;;;;;;;5028409;28;20288;-43
2023/10/25 16:18:58;;;;;;;;;;;;;;;;;;5011438;28;19913;-44
2023/10/25 16:21:24;;;;;;;;;;;;;;;;;;5010657;28;19909;-45
2023/10/25 16:23:50;;;;;;;;;;;;;;;;;;5028636;28;20374;-43
2023/10/25 16:26:16;;;;;;;;;;;;;;;;;;5024864;28;19967;-43
2023/10/25 16:28:42;;;;;;;;;;;;;;;;;;5028485;28;20348;-43
2023/10/25 16:31:08;;;;;;;;;;;;;;;;;;5028418;28;19909;-44
2023/10/25 16:33:34;;;;;;;;;;;;;;;;;;5027883;28;19917;-43
2023/10/25 16:36:00;;;;;;;;;;;;;;;;;;5028936;28;19920;-44
2023/10/25 16:38:26;;;;;;;;;;;;;;;;;;5028382;28;20324;-44
2023/10/25 16:40:52;;;;;;;;;;;;;;;;;;5028281;28;20133;-43
2023/10/25 16:43:17;;;;;;;;;;;;;;;;;;5027897;28;19916;-42
2023/10/25 16:45:43;;;;;;;;;;;;;;;;;;5028034;28;20003;-43
2023/10/25 16:48:09;;;;;;;;;;;;;;;;;;5023048;28;20055;-43
2023/10/25 16:50:35;;;;;;;;;;;;;;;;;;5027816;28;20373;-43
2023/10/25 16:53:01;;;;;;;;;;;;;;;;;;5028197;28;19914;-42
2023/10/25 16:55:27;;;;;;;;;;;;;;;;;;5027794;28;19956;-44
2023/10/25 16:57:53;;;;;;;;;;;;;;;;;;5027934;28;19961;-42
2023/10/25 17:00:19;;;;;;;;;;;;;;;;;;5027496;28;20341;-44
2023/10/25 17:02:45;;;;;;;;;;;;;;;;;;5028026;28;19916;-42
2023/10/25 17:05:11;;;;;;;;;;;;;;;;;;5027778;28;20377;-42
2023/10/25 17:07:37;;;;;;;;;;;;;;;;;;5027260;28;19909;-41
2023/10/25 17:10:03;;;;;;;;;;;;;;;;;;5027396;28;19967;-42
2023/10/25 17:12:28;;;;;;;;;;;;;;;;;;5010764;28;19909;-42
2023/10/25 17:14:54;;;;;;;;;;;;;;;;;;5008763;28;19914;-41
2023/10/25 17:17:20;;;;;;;;;;;;;;;;;;5006158;28;20408;-41
2023/10/25 17:19:46;;;;;;;;;;;;;;;;;;5007700;28;19916;-42
2023/10/25 17:22:12;;;;;;;;;;;;;;;;;;5004220;28;20008;-41
2023/10/25 17:24:38;;;;;;;;;;;;;;;;;;5007315;28;20056;-42
2023/10/25 17:27:04;;;;;;;;;;;;;;;;;;5021767;28;19960;-42
2023/10/25 17:29:30;;;;;;;;;;;;;;;;;;5028039;28;20011;-43
2023/10/25 17:31:57;;;;;;;;;;;;;;;;;;5020368;28;19921;-42
2023/10/25 17:34:23;;;;;;;;;;;;;;;;;;4987935;28;19925;-42
2023/10/25 17:36:49;;;;;;;;;;;;;;;;;;5007699;28;20329;-44
2023/10/25 17:39:15;;;;;;;;;;;;;;;;;;4989860;28;20378;-43
2023/10/25 17:41:41;;;;;;;;;;;;;;;;;;5009558;28;19909;-42
2023/10/25 17:44:07;;;;;;;;;;;;;;;;;;5009329;28;19980;-43
2023/10/25 17:46:33;;;;;;;;;;;;;;;;;;5009088;28;20001;-44
2023/10/25 17:48:59;;;;;;;;;;;;;;;;;;5014135;28;20562;-43
2023/10/25 17:51:24;;;;;;;;;;;;;;;;;;5028399;28;19909;-43
2023/10/25 17:53:50;;;;;;;;;;;;;;;;;;5028421;28;19917;-44
2023/10/25 17:56:16;;;;;;;;;;;;;;;;;;5028306;28;19909;-43
2023/10/25 17:58:44;;;;;;;;;;;;;;;;;;5015793;28;19913;-44
2023/10/25 18:01:10;;;;;;;;;;;;;;;;;;5008843;28;19944;-42
2023/10/25 18:03:36;;;;;;;;;;;;;;;;;;5008546;28;19909;-42
2023/10/25 18:06:04;;;;;;;;;;;;;;;;;;5002087;28;20218;-43
2023/10/25 18:08:31;;;;;;;;;;;;;;;;;;5028449;28;20328;-43
2023/10/25 18:10:57;;;;;;;;;;;;;;;;;;5011508;28;20008;-42
2023/10/25 18:13:24;;;;;;;;;;;;;;;;;;5028368;28;19913;-43
2023/10/25 18:15:50;;;;;;;;;;;;;;;;;;5028724;28;20766;-43
2023/10/25 18:18:16;;;;;;;;;;;;;;;;;;5025694;28;20321;-42
2023/10/25 18:20:43;;;;;;;;;;;;;;;;;;5028378;28;19909;-42
2023/10/25 18:23:09;;;;;;;;;;;;;;;;;;5015212;28;19932;-42
2023/10/25 18:25:35;;;;;;;;;;;;;;;;;;5009165;28;19914;-44
2023/10/25 18:28:01;;;;;;;;;;;;;;;;;;5027091;28;19952;-43
2023/10/25 18:30:27;;;;;;;;;;;;;;;;;;5005760;28;19921;-42
2023/10/25 18:32:55;;;;;;;;;;;;;;;;;;5027601;28;19916;-42
2023/10/25 18:35:24;;;;;;;;;;;;;;;;;;5010776;28;19920;-42
2023/10/25 18:37:50;;;;;;;;;;;;;;;;;;5006599;28;20075;-43
2023/10/25 18:40:16;;;;;;;;;;;;;;;;;;5006328;28;20385;-43
2023/10/25 18:42:42;;;;;;;;;;;;;;;;;;5006926;28;19910;-43
2023/10/25 18:45:08;;;;;;;;;;;;;;;;;;4989038;28;20337;-42
2023/10/25 18:47:34;;;;;;;;;;;;;;;;;;5006133;28;19913;-43
2023/10/25 18:50:00;;;;;;;;;;;;;;;;;;5007030;28;19913;-42
2023/10/25 18:52:26;;;;;;;;;;;;;;;;;;4988427;28;19909;-44
2023/10/25 18:54:51;;;;;;;;;;;;;;;;;;5006572;28;19928;-50
2023/10/25 18:57:17;;;;;;;;;;;;;;;;;;5005206;28;19935;-43
2023/10/25 18:59:43;;;;;;;;;;;;;;;;;;5025619;28;20329;-44
2023/10/25 19:02:09;;;;;;;;;;;;;;;;;;5026336;28;19952;-43
2023/10/25 19:04:35;;;;;;;;;;;;;;;;;;5025780;28;19909;-43
2023/10/25 19:07:01;;;;;;;;;;;;;;;;;;5026391;28;19916;-42
2023/10/25 19:09:27;;;;;;;;;;;;;;;;;;5026297;28;20297;-42
2023/10/25 19:11:54;;;;;;;;;;;;;;;;;;5025865;28;20278;-43
2023/10/25 19:14:20;;;;;;;;;;;;;;;;;;5025731;28;19924;-42
2023/10/25 19:16:46;;;;;;;;;;;;;;;;;;5008051;28;19916;-42
2023/10/25 19:19:11;;;;;;;;;;;;;;;;;;5025792;28;20289;-43
2023/10/25 19:21:37;;;;;;;;;;;;;;;;;;5020304;28;19913;-42
2023/10/25 19:24:03;;;;;;;;;;;;;;;;;;5026078;28;19910;-43
2023/10/25 19:26:29;;;;;;;;;;;;;;;;;;5026127;28;19913;-42
2023/10/25 19:28:56;;;;;;;;;;;;;;;;;;5025779;28;19955;-42
2023/10/25 19:31:22;;;;;;;;;;;;;;;;;;5024748;28;19909;-41
2023/10/25 19:33:48;;;;;;;;;;;;;;;;;;5025425;28;20377;-42
2023/10/25 19:36:14;;;;;;;;;;;;;;;;;;5024678;28;20032;-42
2023/10/25 19:38:40;;;;;;;;;;;;;;;;;;5020992;28;19917;-41
2023/10/25 19:41:06;;;;;;;;;;;;;;;;;;5011318;28;20498;-41
2023/10/25 19:43:32;;;;;;;;;;;;;;;;;;5030388;28;20356;-45
2023/10/25 19:45:58;;;;;;;;;;;;;;;;;;5030064;28;20000;-45
2023/10/25 19:48:24;;;;;;;;;;;;;;;;;;5028672;28;19913;-41
2023/10/25 19:50:50;;;;;;;;;;;;;;;;;;5029684;28;19985;-45
2023/10/25 19:53:16;;;;;;;;;;;;;;;;;;5028904;28;20177;-42
2023/10/25 19:55:41;;;;;;;;;;;;;;;;;;5029246;28;19932;-43
2023/10/25 19:58:07;;;;;;;;;;;;;;;;;;5028997;28;19967;-43
2023/10/25 20:00:33;;;;;;;;;;;;;;;;;;5028562;28;20127;-42
2023/10/25 20:02:59;;;;;;;;;;;;;;;;;;5029188;28;19982;-43
2023/10/25 20:05:25;;;;;;;;;;;;;;;;;;5026616;28;19963;-43
2023/10/25 20:07:51;;;;;;;;;;;;;;;;;;5010908;28;19913;-43
2023/10/25 20:10:17;;;;;;;;;;;;;;;;;;5028832;28;19915;-42
2023/10/25 20:12:43;;;;;;;;;;;;;;;;;;5010938;28;19917;-46
2023/10/25 20:15:10;;;;;;;;;;;;;;;;;;5028925;28;19936;-46
2023/10/25 20:17:36;;;;;;;;;;;;;;;;;;5027959;28;19921;-43
2023/10/25 20:20:02;;;;;;;;;;;;;;;;;;5029538;28;20518;-46
2023/10/25 20:22:28;;;;;;;;;;;;;;;;;;5020565;28;19959;-49
2023/10/25 20:24:56;;;;;;;;;;;;;;;;;;5027773;28;19925;-42
2023/10/25 20:27:22;;;;;;;;;;;;;;;;;;5010376;28;19909;-42
2023/10/25 20:29:48;;;;;;;;;;;;;;;;;;5028623;28;19916;-43
2023/10/25 20:32:16;;;;;;;;;;;;;;;;;;5028103;28;19916;-46
2023/10/25 20:34:42;;;;;;;;;;;;;;;;;;5010684;28;19913;-46
2023/10/25 20:37:08;;;;;;;;;;;;;;;;;;5028489;28;19919;-46
2023/10/25 20:39:34;;;;;;;;;;;;;;;;;;5028823;28;19913;-42
2023/10/25 20:42:00;;;;;;;;;;;;;;;;;;5027684;28;20385;-43
2023/10/25 20:44:25;;;;;;;;;;;;;;;;;;5028036;28;20210;-44
2023/10/25 20:46:51;;;;;;;;;;;;;;;;;;5028073;28;19965;-47
2023/10/25 20:49:17;;;;;;;;;;;;;;;;;;5027734;28;20287;-44
2023/10/25 20:51:43;;;;;;;;;;;;;;;;;;5027379;28;19910;-47
2023/10/25 20:54:09;;;;;;;;;;;;;;;;;;5028213;28;20440;-48
2023/10/25 20:56:35;;;;;;;;;;;;;;;;;;5028472;28;19917;-47
2023/10/25 20:59:01;;;;;;;;;;;;;;;;;;5028533;28;19956;-46
2023/10/25 21:01:26;;;;;;;;;;;;;;;;;;5027031;28;19921;-48
2023/10/25 21:03:52;;;;;;;;;;;;;;;;;;5028044;28;19909;-46
2023/10/25 21:06:18;;;;;;;;;;;;;;;;;;5000148;28;19913;-46
2023/10/25 21:08:44;;;;;;;;;;;;;;;;;;5008429;28;19921;-46
2023/10/25 21:11:10;;;;;;;;;;;;;;;;;;5007563;28;19960;-46
2023/10/25 21:13:36;;;;;;;;;;;;;;;;;;5008156;28;19971;-48
2023/10/25 21:16:03;;;;;;;;;;;;;;;;;;5008561;28;19914;-44
2023/10/25 21:18:29;;;;;;;;;;;;;;;;;;5005523;28;19929;-46
2023/10/25 21:20:55;;;;;;;;;;;;;;;;;;5007772;28;19910;-44
2023/10/25 21:23:21;;;;;;;;;;;;;;;;;;5003275;28;19913;-46
2023/10/25 21:25:47;;;;;;;;;;;;;;;;;;5027557;28;19924;-45
2023/10/25 21:28:13;;;;;;;;;;;;;;;;;;5026909;28;20420;-45
2023/10/25 21:30:39;;;;;;;;;;;;;;;;;;5027606;28;19992;-46
2023/10/25 21:33:05;;;;;;;;;;;;;;;;;;5027639;28;19913;-46
2023/10/25 21:35:31;;;;;;;;;;;;;;;;;;5009067;28;20012;-47
2023/10/25 21:37:57;;;;;;;;;;;;;;;;;;5009196;28;19909;-47
2023/10/25 21:40:22;;;;;;;;;;;;;;;;;;5027107;28;19916;-47
2023/10/25 21:42:49;;;;;;;;;;;;;;;;;;5026821;28;19909;-46
2023/10/25 21:45:15;;;;;;;;;;;;;;;;;;5026693;28;19919;-46
2023/10/25 21:47:41;;;;;;;;;;;;;;;;;;5026615;28;20000;-48
2023/10/25 21:50:07;;;;;;;;;;;;;;;;;;5027676;28;19964;-47
2023/10/25 21:52:32;;;;;;;;;;;;;;;;;;5008878;28;19909;-43